To NAV CANADA Home Page Login to a new session Search on AWWS site Disclaimer Vers la page française équivalente Tips FAQ What's new on the site To the Forecasts and Observations / NOTAM section To "File a Flight Plan" website Publications and other links Update of the User's profile FIC Telephone Numbers My Weather Data Folder Route Weather Data Regional Weather Data Local Weather Data To the Forecasts and Observations / NOTAM section
Request Generated 04/05/2020 at 06:50:17 UTC . Weather information available at that time is displayed.

METAR/TAF

If you find any discrepancies between the coded METAR/TAF and the plain language METAR/TAF please use the coded METAR/TAF. LWIS bulletins are not decoded in plain language.

VANCOUVER INTL/BC    (show WxCam)

METAR CYVR 050600Z 33004KT 20SM FEW090 BKN170 BKN240 05/01 A2969 RMK AC1AC5CI1 P055=
METAR
LOCATION
CYVR - VANCOUVER INTL/BC
DATE - TIME
05 APRIL 2020 - 0600 UTC
WIND
330 TRUE @ 4  KNOTS
VISIBILITY
20 STAT.  MILES
RUNWAY VISUAL RANGE
WEATHER
CLOUDINESS
FEW CLOUDS (1/8 - 2/8) 9000  FT
BROKEN CLOUDS (5/8 - 7/8) 17000  FT
BROKEN CLOUDS (5/8 - 7/8) 24000  FT
TEMP / DEWPOINT
5 C / 1 C
ALTIMETER
29.69 IN HG
RECENT WEATHER
WIND SHEAR

METAR CYVR 050500Z 34004KT 20SM FEW075 BKN150 BKN180 BKN240 06/00 A2969 RMK AC1 4AS1CI1 SLP056=
METAR
LOCATION
CYVR - VANCOUVER INTL/BC
DATE - TIME
05 APRIL 2020 - 0500 UTC
WIND
340 TRUE @ 4  KNOTS
VISIBILITY
20 STAT.  MILES
RUNWAY VISUAL RANGE
WEATHER
CLOUDINESS
FEW CLOUDS (1/8 - 2/8) 7500  FT
BROKEN CLOUDS (5/8 - 7/8) 15000  FT
BROKEN CLOUDS (5/8 - 7/8) 18000  FT
BROKEN CLOUDS (5/8 - 7/8) 24000  FT
TEMP / DEWPOINT
6 C / 0 C
ALTIMETER
29.69 IN HG
RECENT WEATHER
WIND SHEAR

METAR CYVR 050400Z 31008KT 20SM FEW100 BKN160 06/02 A2969 RMK AC1AS6 SLP057=
METAR
LOCATION
CYVR - VANCOUVER INTL/BC
DATE - TIME
05 APRIL 2020 - 0400 UTC
WIND
310 TRUE @ 8  KNOTS
VISIBILITY
20 STAT.  MILES
RUNWAY VISUAL RANGE
WEATHER
CLOUDINESS
FEW CLOUDS (1/8 - 2/8) 10000  FT
BROKEN CLOUDS (5/8 - 7/8) 16000  FT
TEMP / DEWPOINT
6 C / 2 C
ALTIMETER
29.69 IN HG
RECENT WEATHER
WIND SHEAR

TAF CYVR 050539Z 0506/0612 31010KT P6SM SCT060 BKN150 TEMPO 0506/0511 BKN060 FM051100 32006KT P6SM BKN060 BECMG 0516/0518 30010KT FM052200 29012KT P6SM SCT070 FM060300 29008KT P6SM SCT050 BECMG 0604/0606 VRB03KT BECMG 0607/0609 09005KT RMK NXT FCST BY 050900Z=
TAF
LOCATION

CYVR - VANCOUVER INTL/BC
VALIDITY [UTC]
05 APR - 0539 to
06 APR - 1200
 
TIMES
[UTC]
WIND
[DEGREES TRUE]
VISIBILITY
[STAT. MILES]
WEATHER
CLOUDINESS
[FEET AGL]
 
05 APR - 0600 to
05 APR - 1100
310 @ 10 KNOTS
6+
NIL
6000 SCATTERED
15000 BROKEN
TEMPORARY CHANGES
05 APR - 0600 to
05 APR - 1100
 
 
 
6000 BROKEN
 
05 APR - 1100 to
05 APR - 2200
320 @ 6 KNOTS
6+
NIL
6000 BROKEN
BECOMING
05 APR - 1600 to
05 APR - 1800
300 @ 10 KNOTS
 
 
 
 
05 APR - 2200 to
06 APR - 0300
290 @ 12 KNOTS
6+
NIL
7000 SCATTERED
 
06 APR - 0300 to
06 APR - 1200
290 @ 8 KNOTS
6+
NIL
5000 SCATTERED
BECOMING
06 APR - 0400 to
06 APR - 0600
VARIABLE @ 3 KNOTS
 
 
 
BECOMING
06 APR - 0700 to
06 APR - 0900
90 @ 5 KNOTS
 
 
 
REMARKS
THE NEXT FORECAST WILL BE ISSUED BY 0900 UTC ON DAY 05


Your time UTC time
Weather data provided by Environment Canada and NAV CANADA